Terminal Aerodrome Forecast
Issued by NWS

Home | Current Version | Previous Version | Text Only | Print | Product List | Glossary On
Versions: 1 2 3 4 5 6 7 8 9 10 11 12 13 14 15 16 17 18 19 20 21 22 23 24 25 26 27 28 29 30 31 32 33 34 35 36 37 38 39 40 41 42 43 44 45 46 47 48 49 50
378
FTUS44 KHGX 170722 AAA
TAFUTS
TAF AMD
KUTS 170722Z 1707/1806 VRB03KT 6SM -RA BR BKN004 OVC010
     FM171400 36004KT 5SM -RA BR BKN006
     FM171800 36006KT P6SM VCSH OVC010
     FM180100 02008KT 6SM BR VCSH OVC007
     FM180400 03008KT 4SM -RA BR OVC004=

USA.gov is the U.S. government's official web portal to all federal, state and local government web resources and services.